T Luke Savage — WDG2137 — position and weather

sailwx.info

Track history (hours):
 
Tides and Currents Weather Stations Pressure Air Temp Water Temp Dewpoint Dewpoint Depression Visibility Wind Speed Wind Dir Waves Ship Positions

T Luke Savage

Owner: Savage Inland Marine, Gibson, LA. More information available from US FCC via Universal Licensing System and Coast Guard Vessel Documentation Center.

Last reported at 2017-Sep-19 23:33 UTC. Time now 2017-Sep-23 16:39 UTC.
Position N 30°04' W 093°43'.

Length 29 m.

Type: Towing. MMSI: 367512520.

Date/timePositionNaut miles runAvg speedWind from/ knotsBaromVisibWave heightAir tempDewpointWater temp
2017-Sep-19 23:33N 30°04' W 093°43'0 7.1
2017-Sep-19 23:29N 30°05' W 093°44'0 0.9
2017-Sep-19 23:00N 30°05' W 093°44'  
2017-Sep-16 04:39N 29°60' W 093°57'12 0.5
2017-Sep-15 04:54N 30°03' W 093°43'4 8.3
2017-Sep-15 04:23N 30°04' W 093°38'5 7.4
2017-Sep-15 03:44N 30°04' W 093°33'2 7.0
2017-Sep-15 03:30N 30°04' W 093°31'3 5.8
2017-Sep-15 03:00N 30°04' W 093°27'3 6.7
2017-Sep-15 02:30N 30°04' W 093°24'3 5.6
2017-Sep-15 02:00N 30°04' W 093°21'2 4.3
2017-Sep-15 01:30N 30°06' W 093°20'2 3.6
2017-Sep-15 01:00N 30°08' W 093°19'0 0.0
2017-Sep-15 00:30N 30°08' W 093°19'0 0.0
2017-Sep-15 00:00N 30°08' W 093°19'0 0.0
2017-Sep-14 23:30N 30°08' W 093°19'0 0.0
2017-Sep-14 23:00N 30°08' W 093°19'0 0.0
2017-Sep-14 22:30N 30°08' W 093°19'0 0.0
2017-Sep-14 22:00N 30°08' W 093°19'0 0.0
2017-Sep-14 21:30N 30°08' W 093°19'0 0.0
2017-Sep-14 21:00N 30°08' W 093°19'0 0.0
2017-Sep-14 20:30N 30°08' W 093°19'0 0.0
2017-Sep-14 20:00N 30°08' W 093°19'0 0.0
2017-Sep-14 19:30N 30°08' W 093°19'0 0.0
2017-Sep-14 19:00N 30°08' W 093°19'0 0.0
2017-Sep-14 18:30N 30°08' W 093°19'0 0.0
2017-Sep-14 18:00N 30°08' W 093°19'0 0.0
2017-Sep-14 17:30N 30°08' W 093°19'0 0.0
2017-Sep-14 17:00N 30°08' W 093°19'0 0.0
2017-Sep-14 16:30N 30°08' W 093°19'0 0.0
2017-Sep-14 16:00N 30°08' W 093°19'0 0.0
2017-Sep-14 15:30N 30°08' W 093°19'0 0.4
2017-Sep-14 15:00N 30°08' W 093°20'1 1.2
2017-Sep-14 14:30N 30°08' W 093°20'2 3.7
2017-Sep-14 14:01N 30°06' W 093°19'2 4.7
2017-Sep-14 13:30N 30°05' W 093°17'3 5.0
2017-Sep-14 12:56N 30°02' W 093°15'2 4.9
2017-Sep-14 12:30N 30°00' W 093°14'2 4.8
2017-Sep-14 12:00N 29°58' W 093°12'3 5.3
2017-Sep-14 11:30N 29°56' W 093°10'42 3.7
2017-Sep-14 00:00N 29°51' W 092°21'2 3.7
2017-Sep-13 23:27N 29°50' W 092°19'2 4.2
2017-Sep-13 23:00N 29°49' W 092°17'2 5.0
2017-Sep-13 22:30N 29°48' W 092°15'2 4.5
2017-Sep-13 22:00N 29°47' W 092°12'1 2.7
2017-Sep-13 21:30N 29°47' W 092°11'1 2.7
2017-Sep-13 21:00N 29°47' W 092°09'2 5.0
2017-Sep-13 20:30N 29°48' W 092°07'3 5.2
2017-Sep-13 20:00N 29°48' W 092°04'58 5.0
2017-Sep-13 08:27N 29°37' W 090°59'3 5.6
2017-Sep-13 07:58N 29°35' W 090°57'3 5.8
2017-Sep-13 07:30N 29°33' W 090°55'4 5.8
2017-Sep-13 06:49N 29°32' W 090°50'2 6.0
2017-Sep-13 06:30N 29°32' W 090°48'2 4.5
2017-Sep-13 06:00N 29°32' W 090°46'2 4.2
2017-Sep-13 05:30N 29°34' W 090°44'1 2.8
2017-Sep-13 05:00N 29°35' W 090°43'2 3.2
2017-Sep-13 04:30N 29°37' W 090°42'1 2.0
2017-Sep-13 04:00N 29°37' W 090°41'0 0.1
2017-Sep-13 03:30N 29°36' W 090°41'2 3.5
2017-Sep-13 03:00N 29°36' W 090°39'2 4.9
2017-Sep-13 02:30N 29°35' W 090°37'2 4.0
2017-Sep-13 02:00N 29°34' W 090°35'3 5.0
2017-Sep-13 01:30N 29°34' W 090°32'3 5.2
2017-Sep-13 01:00N 29°34' W 090°29'  
2017-Sep-10 08:30N 29°33' W 090°26'3 6.6
2017-Sep-10 08:00N 29°34' W 090°30'3 6.9
2017-Sep-10 07:30N 29°34' W 090°34'3 5.8
2017-Sep-10 07:00N 29°35' W 090°37'3 6.3
2017-Sep-10 06:30N 29°36' W 090°40'2 4.5
2017-Sep-10 06:00N 29°36' W 090°43'3 5.1
2017-Sep-10 05:30N 29°34' W 090°43'3 5.1
2017-Sep-10 05:00N 29°32' W 090°46'3 6.7
2017-Sep-10 04:30N 29°32' W 090°50'4 7.1
2017-Sep-10 03:59N 29°33' W 090°54'  
Track history (hours):
 
Tides and Currents Weather Stations Pressure Air Temp Water Temp Dewpoint Dewpoint Depression Visibility Wind Speed Wind Dir Waves Ship Positions

T Luke Savage

Owner: Savage Inland Marine, Gibson, LA. More information available from US FCC via Universal Licensing System and Coast Guard Vessel Documentation Center.

Last reported at 2017-Sep-19 23:33 UTC. Time now 2017-Sep-23 16:39 UTC.
Position N 30°04' W 093°43'.

Length 29 m.

Type: Towing. MMSI: 367512520.

Date/timePositionNaut miles runAvg speedWind from/ knotsBaromVisibWave heightAir tempDewpointWater temp
2017-Sep-19 23:33N 30°04' W 093°43'0 7.1
2017-Sep-19 23:29N 30°05' W 093°44'0 0.9
2017-Sep-19 23:00N 30°05' W 093°44'  
2017-Sep-16 04:39N 29°60' W 093°57'12 0.5
2017-Sep-15 04:54N 30°03' W 093°43'4 8.3
2017-Sep-15 04:23N 30°04' W 093°38'5 7.4
2017-Sep-15 03:44N 30°04' W 093°33'2 7.0
2017-Sep-15 03:30N 30°04' W 093°31'3 5.8
2017-Sep-15 03:00N 30°04' W 093°27'3 6.7
2017-Sep-15 02:30N 30°04' W 093°24'3 5.6
2017-Sep-15 02:00N 30°04' W 093°21'2 4.3
2017-Sep-15 01:30N 30°06' W 093°20'2 3.6
2017-Sep-15 01:00N 30°08' W 093°19'0 0.0
2017-Sep-15 00:30N 30°08' W 093°19'0 0.0
2017-Sep-15 00:00N 30°08' W 093°19'0 0.0
2017-Sep-14 23:30N 30°08' W 093°19'0 0.0
2017-Sep-14 23:00N 30°08' W 093°19'0 0.0
2017-Sep-14 22:30N 30°08' W 093°19'0 0.0
2017-Sep-14 22:00N 30°08' W 093°19'0 0.0
2017-Sep-14 21:30N 30°08' W 093°19'0 0.0
2017-Sep-14 21:00N 30°08' W 093°19'0 0.0
2017-Sep-14 20:30N 30°08' W 093°19'0 0.0
2017-Sep-14 20:00N 30°08' W 093°19'0 0.0
2017-Sep-14 19:30N 30°08' W 093°19'0 0.0
2017-Sep-14 19:00N 30°08' W 093°19'0 0.0
2017-Sep-14 18:30N 30°08' W 093°19'0 0.0
2017-Sep-14 18:00N 30°08' W 093°19'0 0.0
2017-Sep-14 17:30N 30°08' W 093°19'0 0.0
2017-Sep-14 17:00N 30°08' W 093°19'0 0.0
2017-Sep-14 16:30N 30°08' W 093°19'0 0.0
2017-Sep-14 16:00N 30°08' W 093°19'0 0.0
2017-Sep-14 15:30N 30°08' W 093°19'0 0.4
2017-Sep-14 15:00N 30°08' W 093°20'1 1.2
2017-Sep-14 14:30N 30°08' W 093°20'2 3.7
2017-Sep-14 14:01N 30°06' W 093°19'2 4.7
2017-Sep-14 13:30N 30°05' W 093°17'3 5.0
2017-Sep-14 12:56N 30°02' W 093°15'2 4.9
2017-Sep-14 12:30N 30°00' W 093°14'2 4.8
2017-Sep-14 12:00N 29°58' W 093°12'3 5.3
2017-Sep-14 11:30N 29°56' W 093°10'42 3.7
2017-Sep-14 00:00N 29°51' W 092°21'2 3.7
2017-Sep-13 23:27N 29°50' W 092°19'2 4.2
2017-Sep-13 23:00N 29°49' W 092°17'2 5.0
2017-Sep-13 22:30N 29°48' W 092°15'2 4.5
2017-Sep-13 22:00N 29°47' W 092°12'1 2.7
2017-Sep-13 21:30N 29°47' W 092°11'1 2.7
2017-Sep-13 21:00N 29°47' W 092°09'2 5.0
2017-Sep-13 20:30N 29°48' W 092°07'3 5.2
2017-Sep-13 20:00N 29°48' W 092°04'58 5.0
2017-Sep-13 08:27N 29°37' W 090°59'3 5.6
2017-Sep-13 07:58N 29°35' W 090°57'3 5.8
2017-Sep-13 07:30N 29°33' W 090°55'4 5.8
2017-Sep-13 06:49N 29°32' W 090°50'2 6.0
2017-Sep-13 06:30N 29°32' W 090°48'2 4.5
2017-Sep-13 06:00N 29°32' W 090°46'2 4.2
2017-Sep-13 05:30N 29°34' W 090°44'1 2.8
2017-Sep-13 05:00N 29°35' W 090°43'2 3.2
2017-Sep-13 04:30N 29°37' W 090°42'1 2.0
2017-Sep-13 04:00N 29°37' W 090°41'0 0.1
2017-Sep-13 03:30N 29°36' W 090°41'2 3.5
2017-Sep-13 03:00N 29°36' W 090°39'2 4.9
2017-Sep-13 02:30N 29°35' W 090°37'2 4.0
2017-Sep-13 02:00N 29°34' W 090°35'3 5.0
2017-Sep-13 01:30N 29°34' W 090°32'3 5.2
2017-Sep-13 01:00N 29°34' W 090°29'  
2017-Sep-10 08:30N 29°33' W 090°26'3 6.6
2017-Sep-10 08:00N 29°34' W 090°30'3 6.9
2017-Sep-10 07:30N 29°34' W 090°34'3 5.8
2017-Sep-10 07:00N 29°35' W 090°37'3 6.3
2017-Sep-10 06:30N 29°36' W 090°40'2 4.5
2017-Sep-10 06:00N 29°36' W 090°43'3 5.1
2017-Sep-10 05:30N 29°34' W 090°43'3 5.1
2017-Sep-10 05:00N 29°32' W 090°46'3 6.7
2017-Sep-10 04:30N 29°32' W 090°50'4 7.1
2017-Sep-10 03:59N 29°33' W 090°54'  

Dump ship's entire track history